sensor_id;sensor_type;location;lat;lon;timestamp;temperature;humidity
46752;DHT22;32497;48.936;9.270;2022-10-15T00:02:03;13.80;94.20
46752;DHT22;32497;48.936;9.270;2022-10-15T00:07:05;13.80;94.20
46752;DHT22;32497;48.936;9.270;2022-10-15T00:12:06;13.80;94.20
46752;DHT22;32497;48.936;9.270;2022-10-15T00:17:08;13.80;94.30
46752;DHT22;32497;48.936;9.270;2022-10-15T00:22:10;13.80;94.30
46752;DHT22;32497;48.936;9.270;2022-10-15T00:27:11;13.90;94.30
46752;DHT22;32497;48.936;9.270;2022-10-15T00:32:12;13.90;94.40
46752;DHT22;32497;48.936;9.270;2022-10-15T00:37:15;13.90;94.30
46752;DHT22;32497;48.936;9.270;2022-10-15T00:42:16;13.90;94.30
46752;DHT22;32497;48.936;9.270;2022-10-15T00:47:19;13.90;94.40
46752;DHT22;32497;48.936;9.270;2022-10-15T00:52:25;14.00;94.30
46752;DHT22;32497;48.936;9.270;2022-10-15T00:57:30;14.00;94.40
46752;DHT22;32497;48.936;9.270;2022-10-15T01:02:33;14.00;94.40
46752;DHT22;32497;48.936;9.270;2022-10-15T01:07:35;14.00;94.30
46752;DHT22;32497;48.936;9.270;2022-10-15T01:12:48;14.10;94.30
46752;DHT22;32497;48.936;9.270;2022-10-15T01:17:55;14.10;94.30
46752;DHT22;32497;48.936;9.270;2022-10-15T01:23:21;14.10;94.30
46752;DHT22;32497;48.936;9.270;2022-10-15T01:28:39;14.10;94.40
46752;DHT22;32497;48.936;9.270;2022-10-15T01:33:46;14.10;94.30
46752;DHT22;32497;48.936;9.270;2022-10-15T01:38:55;14.20;94.30
46752;DHT22;32497;48.936;9.270;2022-10-15T01:44:01;14.20;94.30
46752;DHT22;32497;48.936;9.270;2022-10-15T01:49:12;14.20;94.30
46752;DHT22;32497;48.936;9.270;2022-10-15T01:54:16;14.20;94.40
46752;DHT22;32497;48.936;9.270;2022-10-15T01:59:20;14.20;94.40
46752;DHT22;32497;48.936;9.270;2022-10-15T02:04:25;14.20;94.40
46752;DHT22;32497;48.936;9.270;2022-10-15T02:09:32;14.20;94.50
46752;DHT22;32497;48.936;9.270;2022-10-15T02:14:45;14.30;94.50
46752;DHT22;32497;48.936;9.270;2022-10-15T02:19:52;14.30;94.50
46752;DHT22;32497;48.936;9.270;2022-10-15T02:25:00;14.30;94.50
46752;DHT22;32497;48.936;9.270;2022-10-15T02:30:07;14.30;94.70
46752;DHT22;32497;48.936;9.270;2022-10-15T02:35:11;14.30;94.80
46752;DHT22;32497;48.936;9.270;2022-10-15T02:40:15;14.30;94.80
46752;DHT22;32497;48.936;9.270;2022-10-15T02:45:16;14.30;94.80
46752;DHT22;32497;48.936;9.270;2022-10-15T02:50:19;14.40;94.80
46752;DHT22;32497;48.936;9.270;2022-10-15T02:55:20;14.40;94.80
46752;DHT22;32497;48.936;9.270;2022-10-15T03:00:21;14.50;94.70
46752;DHT22;32497;48.936;9.270;2022-10-15T03:05:24;14.60;94.40
46752;DHT22;32497;48.936;9.270;2022-10-15T03:10:26;14.50;94.50
46752;DHT22;32497;48.936;9.270;2022-10-15T03:15:28;14.50;94.60
46752;DHT22;32497;48.936;9.270;2022-10-15T03:20:31;14.60;94.60
46752;DHT22;32497;48.936;9.270;2022-10-15T03:25:32;14.50;94.80
46752;DHT22;32497;48.936;9.270;2022-10-15T03:30:36;14.60;94.80
46752;DHT22;32497;48.936;9.270;2022-10-15T03:35:40;14.60;94.70
46752;DHT22;32497;48.936;9.270;2022-10-15T03:40:42;14.60;94.80
46752;DHT22;32497;48.936;9.270;2022-10-15T03:46:00;14.70;94.70
46752;DHT22;32497;48.936;9.270;2022-10-15T03:51:03;14.70;94.60
46752;DHT22;32497;48.936;9.270;2022-10-15T03:56:05;14.70;94.70
46752;DHT22;32497;48.936;9.270;2022-10-15T04:01:08;14.70;94.70
46752;DHT22;32497;48.936;9.270;2022-10-15T04:06:11;14.70;94.70
46752;DHT22;32497;48.936;9.270;2022-10-15T04:11:13;14.70;94.60
46752;DHT22;32497;48.936;9.270;2022-10-15T04:16:15;14.70;94.50
46752;DHT22;32497;48.936;9.270;2022-10-15T04:21:17;14.70;94.50
46752;DHT22;32497;48.936;9.270;2022-10-15T04:26:24;14.70;94.50
46752;DHT22;32497;48.936;9.270;2022-10-15T04:31:25;14.80;94.50
46752;DHT22;32497;48.936;9.270;2022-10-15T04:36:28;14.90;94.40
46752;DHT22;32497;48.936;9.270;2022-10-15T04:41:38;14.90;94.20
46752;DHT22;32497;48.936;9.270;2022-10-15T04:46:43;14.90;94.20
46752;DHT22;32497;48.936;9.270;2022-10-15T04:52:08;14.90;94.20
46752;DHT22;32497;48.936;9.270;2022-10-15T04:57:29;14.90;94.30
46752;DHT22;32497;48.936;9.270;2022-10-15T05:02:31;15.00;94.20
46752;DHT22;32497;48.936;9.270;2022-10-15T05:07:45;14.90;94.10
46752;DHT22;32497;48.936;9.270;2022-10-15T05:12:47;14.90;94.10
46752;DHT22;32497;48.936;9.270;2022-10-15T05:17:48;15.10;94.10
46752;DHT22;32497;48.936;9.270;2022-10-15T05:22:51;15.10;93.70
46752;DHT22;32497;48.936;9.270;2022-10-15T05:27:53;15.20;93.50
46752;DHT22;32497;48.936;9.270;2022-10-15T05:32:55;15.10;93.50
46752;DHT22;32497;48.936;9.270;2022-10-15T05:37:58;15.00;93.50
46752;DHT22;32497;48.936;9.270;2022-10-15T05:42:59;15.00;94.10
46752;DHT22;32497;48.936;9.270;2022-10-15T05:48:00;15.00;93.30
46752;DHT22;32497;48.936;9.270;2022-10-15T05:53:03;15.00;93.50
46752;DHT22;32497;48.936;9.270;2022-10-15T05:58:10;15.10;93.30
46752;DHT22;32497;48.936;9.270;2022-10-15T06:03:12;15.10;93.50
46752;DHT22;32497;48.936;9.270;2022-10-15T06:08:14;15.10;93.50
46752;DHT22;32497;48.936;9.270;2022-10-15T06:13:16;15.10;93.60
46752;DHT22;32497;48.936;9.270;2022-10-15T06:18:17;15.10;93.10
46752;DHT22;32497;48.936;9.270;2022-10-15T06:23:20;15.30;93.20
46752;DHT22;32497;48.936;9.270;2022-10-15T06:28:21;15.30;93.20
46752;DHT22;32497;48.936;9.270;2022-10-15T06:33:22;15.20;93.10
46752;DHT22;32497;48.936;9.270;2022-10-15T06:38:24;15.20;93.00
46752;DHT22;32497;48.936;9.270;2022-10-15T06:43:25;15.40;93.10
46752;DHT22;32497;48.936;9.270;2022-10-15T06:48:26;15.40;92.90
46752;DHT22;32497;48.936;9.270;2022-10-15T06:53:29;15.60;92.90
46752;DHT22;32497;48.936;9.270;2022-10-15T06:58:30;15.60;92.60
46752;DHT22;32497;48.936;9.270;2022-10-15T07:03:32;15.70;92.70
46752;DHT22;32497;48.936;9.270;2022-10-15T07:08:35;15.70;92.50
46752;DHT22;32497;48.936;9.270;2022-10-15T07:13:36;15.80;92.30
46752;DHT22;32497;48.936;9.270;2022-10-15T07:18:38;15.70;92.40
46752;DHT22;32497;48.936;9.270;2022-10-15T07:23:41;15.90;92.40
46752;DHT22;32497;48.936;9.270;2022-10-15T07:28:42;15.90;92.00
46752;DHT22;32497;48.936;9.270;2022-10-15T07:33:43;15.90;92.30
46752;DHT22;32497;48.936;9.270;2022-10-15T07:38:45;16.20;92.50
46752;DHT22;32497;48.936;9.270;2022-10-15T07:43:47;16.50;92.40
46752;DHT22;32497;48.936;9.270;2022-10-15T07:48:48;16.70;91.50
46752;DHT22;32497;48.936;9.270;2022-10-15T07:53:50;16.80;91.10
46752;DHT22;32497;48.936;9.270;2022-10-15T07:58:51;16.70;90.80
46752;DHT22;32497;48.936;9.270;2022-10-15T08:03:52;16.40;91.00
46752;DHT22;32497;48.936;9.270;2022-10-15T08:08:54;16.20;92.00
46752;DHT22;32497;48.936;9.270;2022-10-15T08:13:56;16.20;91.90
46752;DHT22;32497;48.936;9.270;2022-10-15T08:18:57;16.10;92.20
46752;DHT22;32497;48.936;9.270;2022-10-15T08:24:00;16.20;92.30
46752;DHT22;32497;48.936;9.270;2022-10-15T08:29:10;15.90;91.80
46752;DHT22;32497;48.936;9.270;2022-10-15T08:34:11;15.70;92.50
46752;DHT22;32497;48.936;9.270;2022-10-15T08:39:13;15.50;92.70
46752;DHT22;32497;48.936;9.270;2022-10-15T08:44:20;15.40;93.20
46752;DHT22;32497;48.936;9.270;2022-10-15T08:49:29;15.30;92.80
46752;DHT22;32497;48.936;9.270;2022-10-15T08:54:35;15.30;93.00
46752;DHT22;32497;48.936;9.270;2022-10-15T08:59:40;15.40;93.10
46752;DHT22;32497;48.936;9.270;2022-10-15T09:04:50;15.50;93.00
46752;DHT22;32497;48.936;9.270;2022-10-15T09:09:59;15.40;93.10
46752;DHT22;32497;48.936;9.270;2022-10-15T09:15:03;15.40;93.30
46752;DHT22;32497;48.936;9.270;2022-10-15T09:20:12;15.60;93.20
46752;DHT22;32497;48.936;9.270;2022-10-15T09:25:19;15.40;92.80
46752;DHT22;32497;48.936;9.270;2022-10-15T09:30:28;15.40;92.00
46752;DHT22;32497;48.936;9.270;2022-10-15T09:35:33;15.40;92.90
46752;DHT22;32497;48.936;9.270;2022-10-15T09:40:47;15.60;92.60
46752;DHT22;32497;48.936;9.270;2022-10-15T09:45:50;15.50;92.50
46752;DHT22;32497;48.936;9.270;2022-10-15T09:50:55;15.50;93.10
46752;DHT22;32497;48.936;9.270;2022-10-15T09:56:05;15.60;93.00
46752;DHT22;32497;48.936;9.270;2022-10-15T10:01:16;15.50;92.90
46752;DHT22;32497;48.936;9.270;2022-10-15T10:06:17;15.90;93.00
46752;DHT22;32497;48.936;9.270;2022-10-15T10:11:25;16.40;91.80
46752;DHT22;32497;48.936;9.270;2022-10-15T10:16:26;16.00;91.80
46752;DHT22;32497;48.936;9.270;2022-10-15T10:21:33;16.30;92.50
46752;DHT22;32497;48.936;9.270;2022-10-15T10:26:36;16.40;92.50
46752;DHT22;32497;48.936;9.270;2022-10-15T10:31:37;16.50;92.20
46752;DHT22;32497;48.936;9.270;2022-10-15T10:36:38;16.60;92.10
46752;DHT22;32497;48.936;9.270;2022-10-15T10:41:52;16.50;92.20
46752;DHT22;32497;48.936;9.270;2022-10-15T10:47:18;17.00;91.30
46752;DHT22;32497;48.936;9.270;2022-10-15T10:52:25;17.20;91.00
46752;DHT22;32497;48.936;9.270;2022-10-15T10:57:39;17.50;90.80
46752;DHT22;32497;48.936;9.270;2022-10-15T11:02:40;17.60;88.90
46752;DHT22;32497;48.936;9.270;2022-10-15T11:07:47;17.50;89.60
46752;DHT22;32497;48.936;9.270;2022-10-15T11:13:03;17.30;89.90
46752;DHT22;32497;48.936;9.270;2022-10-15T11:18:23;17.80;90.00
46752;DHT22;32497;48.936;9.270;2022-10-15T11:23:45;18.00;88.40
46752;DHT22;32497;48.936;9.270;2022-10-15T11:28:58;18.40;87.90
46752;DHT22;32497;48.936;9.270;2022-10-15T11:34:13;18.60;87.00
46752;DHT22;32497;48.936;9.270;2022-10-15T11:39:34;18.20;86.90
46752;DHT22;32497;48.936;9.270;2022-10-15T11:44:54;17.90;87.50
46752;DHT22;32497;48.936;9.270;2022-10-15T11:50:14;18.40;86.40
46752;DHT22;32497;48.936;9.270;2022-10-15T11:55:19;18.60;86.70
46752;DHT22;32497;48.936;9.270;2022-10-15T12:00:30;18.60;83.10
46752;DHT22;32497;48.936;9.270;2022-10-15T12:05:34;19.00;84.00
46752;DHT22;32497;48.936;9.270;2022-10-15T12:10:51;19.00;84.50
46752;DHT22;32497;48.936;9.270;2022-10-15T12:16:01;18.80;80.50
46752;DHT22;32497;48.936;9.270;2022-10-15T12:21:37;18.30;80.10
46752;DHT22;32497;48.936;9.270;2022-10-15T12:26:38;18.10;80.40
46752;DHT22;32497;48.936;9.270;2022-10-15T12:31:45;18.00;81.00
46752;DHT22;32497;48.936;9.270;2022-10-15T12:36:59;17.90;79.70
46752;DHT22;32497;48.936;9.270;2022-10-15T12:42:00;17.90;78.00
46752;DHT22;32497;48.936;9.270;2022-10-15T12:47:02;17.70;79.20
46752;DHT22;32497;48.936;9.270;2022-10-15T12:57:55;17.40;82.80
46752;DHT22;32497;48.936;9.270;2022-10-15T13:03:08;17.60;83.40
46752;DHT22;32497;48.936;9.270;2022-10-15T13:08:12;17.50;82.70
46752;DHT22;32497;48.936;9.270;2022-10-15T13:13:16;17.20;84.90
46752;DHT22;32497;48.936;9.270;2022-10-15T13:18:20;17.10;84.60
46752;DHT22;32497;48.936;9.270;2022-10-15T13:23:24;17.20;85.10
46752;DHT22;32497;48.936;9.270;2022-10-15T13:28:28;17.30;84.30
46752;DHT22;32497;48.936;9.270;2022-10-15T13:33:33;17.30;83.30
46752;DHT22;32497;48.936;9.270;2022-10-15T13:38:36;17.20;82.50
46752;DHT22;32497;48.936;9.270;2022-10-15T13:43:38;17.30;82.70
46752;DHT22;32497;48.936;9.270;2022-10-15T13:48:56;17.50;82.90
46752;DHT22;32497;48.936;9.270;2022-10-15T13:53:58;17.50;83.20
46752;DHT22;32497;48.936;9.270;2022-10-15T13:59:00;17.40;81.40
46752;DHT22;32497;48.936;9.270;2022-10-15T14:04:16;17.20;82.40
46752;DHT22;32497;48.936;9.270;2022-10-15T14:09:19;17.00;83.20
46752;DHT22;32497;48.936;9.270;2022-10-15T14:14:31;16.90;83.60
46752;DHT22;32497;48.936;9.270;2022-10-15T14:19:35;16.90;83.70
46752;DHT22;32497;48.936;9.270;2022-10-15T14:24:38;16.90;84.00
46752;DHT22;32497;48.936;9.270;2022-10-15T14:29:41;16.90;84.30
46752;DHT22;32497;48.936;9.270;2022-10-15T14:34:44;16.80;83.70
46752;DHT22;32497;48.936;9.270;2022-10-15T14:39:47;16.80;85.00
46752;DHT22;32497;48.936;9.270;2022-10-15T14:44:48;16.70;86.70
46752;DHT22;32497;48.936;9.270;2022-10-15T14:49:53;16.70;86.90
46752;DHT22;32497;48.936;9.270;2022-10-15T14:55:01;16.70;86.10
46752;DHT22;32497;48.936;9.270;2022-10-15T15:00:10;16.70;86.80
46752;DHT22;32497;48.936;9.270;2022-10-15T15:05:20;16.80;85.80
46752;DHT22;32497;48.936;9.270;2022-10-15T15:10:25;17.10;86.00
46752;DHT22;32497;48.936;9.270;2022-10-15T15:15:26;17.40;84.70
46752;DHT22;32497;48.936;9.270;2022-10-15T15:20:29;17.80;84.20
46752;DHT22;32497;48.936;9.270;2022-10-15T15:25:32;17.80;84.20
46752;DHT22;32497;48.936;9.270;2022-10-15T15:30:33;17.60;84.50
46752;DHT22;32497;48.936;9.270;2022-10-15T15:35:38;17.50;84.20
46752;DHT22;32497;48.936;9.270;2022-10-15T15:40:40;17.30;85.90
46752;DHT22;32497;48.936;9.270;2022-10-15T15:45:43;17.30;85.20
46752;DHT22;32497;48.936;9.270;2022-10-15T15:50:46;17.40;85.70
46752;DHT22;32497;48.936;9.270;2022-10-15T15:55:47;17.40;85.50
46752;DHT22;32497;48.936;9.270;2022-10-15T16:00:49;17.40;85.20
46752;DHT22;32497;48.936;9.270;2022-10-15T16:06:06;17.30;85.40
46752;DHT22;32497;48.936;9.270;2022-10-15T16:11:08;17.00;86.60
46752;DHT22;32497;48.936;9.270;2022-10-15T16:16:09;16.70;87.30
46752;DHT22;32497;48.936;9.270;2022-10-15T16:21:12;16.60;87.10
46752;DHT22;32497;48.936;9.270;2022-10-15T16:26:13;16.60;86.80
46752;DHT22;32497;48.936;9.270;2022-10-15T16:31:15;16.60;86.90
46752;DHT22;32497;48.936;9.270;2022-10-15T16:36:17;16.40;87.30
46752;DHT22;32497;48.936;9.270;2022-10-15T16:41:18;16.30;87.60
46752;DHT22;32497;48.936;9.270;2022-10-15T16:46:20;16.20;88.00
46752;DHT22;32497;48.936;9.270;2022-10-15T16:51:23;16.00;88.80
46752;DHT22;32497;48.936;9.270;2022-10-15T16:56:26;15.90;88.00
46752;DHT22;32497;48.936;9.270;2022-10-15T17:01:28;16.30;85.00
46752;DHT22;32497;48.936;9.270;2022-10-15T17:06:30;16.50;83.50
46752;DHT22;32497;48.936;9.270;2022-10-15T17:11:33;16.50;84.00
46752;DHT22;32497;48.936;9.270;2022-10-15T17:16:36;16.40;83.90
46752;DHT22;32497;48.936;9.270;2022-10-15T17:21:39;16.40;83.70
46752;DHT22;32497;48.936;9.270;2022-10-15T17:26:54;16.50;83.40
46752;DHT22;32497;48.936;9.270;2022-10-15T17:31:55;16.40;83.50
46752;DHT22;32497;48.936;9.270;2022-10-15T17:36:57;16.40;83.70
46752;DHT22;32497;48.936;9.270;2022-10-15T17:41:59;16.40;83.40
46752;DHT22;32497;48.936;9.270;2022-10-15T17:47:00;16.40;83.90
46752;DHT22;32497;48.936;9.270;2022-10-15T17:52:03;16.40;84.40
46752;DHT22;32497;48.936;9.270;2022-10-15T17:57:07;16.20;85.00
46752;DHT22;32497;48.936;9.270;2022-10-15T18:02:15;16.10;86.10
46752;DHT22;32497;48.936;9.270;2022-10-15T18:07:21;16.00;86.80
46752;DHT22;32497;48.936;9.270;2022-10-15T18:12:28;15.90;87.00
46752;DHT22;32497;48.936;9.270;2022-10-15T18:17:29;15.80;87.50
46752;DHT22;32497;48.936;9.270;2022-10-15T18:22:38;15.80;87.40
46752;DHT22;32497;48.936;9.270;2022-10-15T18:27:42;15.90;87.20
46752;DHT22;32497;48.936;9.270;2022-10-15T18:32:46;15.90;86.80
46752;DHT22;32497;48.936;9.270;2022-10-15T18:37:49;15.90;86.90
46752;DHT22;32497;48.936;9.270;2022-10-15T18:42:50;16.00;86.80
46752;DHT22;32497;48.936;9.270;2022-10-15T18:47:54;16.00;86.60
46752;DHT22;32497;48.936;9.270;2022-10-15T18:52:56;16.00;86.30
46752;DHT22;32497;48.936;9.270;2022-10-15T18:57:57;16.10;86.10
46752;DHT22;32497;48.936;9.270;2022-10-15T19:02:58;16.10;86.10
46752;DHT22;32497;48.936;9.270;2022-10-15T19:08:01;16.10;86.20
46752;DHT22;32497;48.936;9.270;2022-10-15T19:13:02;16.20;85.40
46752;DHT22;32497;48.936;9.270;2022-10-15T19:18:05;16.20;85.00
46752;DHT22;32497;48.936;9.270;2022-10-15T19:23:07;16.20;85.40
46752;DHT22;32497;48.936;9.270;2022-10-15T19:28:08;16.20;85.10
46752;DHT22;32497;48.936;9.270;2022-10-15T19:33:10;16.30;84.90
46752;DHT22;32497;48.936;9.270;2022-10-15T19:38:12;16.30;84.60
46752;DHT22;32497;48.936;9.270;2022-10-15T19:43:13;16.40;84.50
46752;DHT22;32497;48.936;9.270;2022-10-15T19:48:16;16.30;84.50
46752;DHT22;32497;48.936;9.270;2022-10-15T19:53:19;16.30;85.00
46752;DHT22;32497;48.936;9.270;2022-10-15T19:58:20;16.20;85.30
46752;DHT22;32497;48.936;9.270;2022-10-15T20:03:22;16.20;85.50
46752;DHT22;32497;48.936;9.270;2022-10-15T20:08:25;16.10;85.60
46752;DHT22;32497;48.936;9.270;2022-10-15T20:13:26;16.20;85.40
46752;DHT22;32497;48.936;9.270;2022-10-15T20:18:27;16.20;85.30
46752;DHT22;32497;48.936;9.270;2022-10-15T20:23:30;16.20;85.40
46752;DHT22;32497;48.936;9.270;2022-10-15T20:28:33;16.10;85.40
46752;DHT22;32497;48.936;9.270;2022-10-15T20:33:34;16.00;85.80
46752;DHT22;32497;48.936;9.270;2022-10-15T20:38:37;16.00;86.20
46752;DHT22;32497;48.936;9.270;2022-10-15T20:43:38;16.00;86.10
46752;DHT22;32497;48.936;9.270;2022-10-15T20:48:40;16.00;86.30
46752;DHT22;32497;48.936;9.270;2022-10-15T20:53:44;16.00;86.40
46752;DHT22;32497;48.936;9.270;2022-10-15T20:58:46;16.00;86.20
46752;DHT22;32497;48.936;9.270;2022-10-15T21:03:47;16.10;86.20
46752;DHT22;32497;48.936;9.270;2022-10-15T21:08:49;16.00;86.70
46752;DHT22;32497;48.936;9.270;2022-10-15T21:13:50;15.90;87.40
46752;DHT22;32497;48.936;9.270;2022-10-15T21:18:51;15.80;87.30
46752;DHT22;32497;48.936;9.270;2022-10-15T21:23:53;15.90;87.00
46752;DHT22;32497;48.936;9.270;2022-10-15T21:28:55;15.90;86.90
46752;DHT22;32497;48.936;9.270;2022-10-15T21:33:56;16.10;86.70
46752;DHT22;32497;48.936;9.270;2022-10-15T21:39:01;16.20;86.60
46752;DHT22;32497;48.936;9.270;2022-10-15T21:44:03;16.10;86.90
46752;DHT22;32497;48.936;9.270;2022-10-15T21:49:05;16.00;87.00
46752;DHT22;32497;48.936;9.270;2022-10-15T21:54:07;16.10;86.90
46752;DHT22;32497;48.936;9.270;2022-10-15T21:59:08;16.20;86.80
46752;DHT22;32497;48.936;9.270;2022-10-15T22:04:10;16.20;86.70
46752;DHT22;32497;48.936;9.270;2022-10-15T22:09:12;16.20;86.50
46752;DHT22;32497;48.936;9.270;2022-10-15T22:14:13;16.10;86.90
46752;DHT22;32497;48.936;9.270;2022-10-15T22:19:15;16.00;87.70
46752;DHT22;32497;48.936;9.270;2022-10-15T22:24:19;15.90;87.60
46752;DHT22;32497;48.936;9.270;2022-10-15T22:29:21;15.80;88.00
46752;DHT22;32497;48.936;9.270;2022-10-15T22:34:23;15.80;88.20
46752;DHT22;32497;48.936;9.270;2022-10-15T22:39:25;15.80;88.30
46752;DHT22;32497;48.936;9.270;2022-10-15T22:44:27;15.80;88.30
46752;DHT22;32497;48.936;9.270;2022-10-15T22:49:28;15.80;88.30
46752;DHT22;32497;48.936;9.270;2022-10-15T22:54:30;15.70;87.90
46752;DHT22;32497;48.936;9.270;2022-10-15T22:59:31;15.80;88.00
46752;DHT22;32497;48.936;9.270;2022-10-15T23:04:32;15.80;88.00
46752;DHT22;32497;48.936;9.270;2022-10-15T23:09:35;15.70;88.00
46752;DHT22;32497;48.936;9.270;2022-10-15T23:14:36;15.70;87.90
46752;DHT22;32497;48.936;9.270;2022-10-15T23:19:37;15.70;88.00
46752;DHT22;32497;48.936;9.270;2022-10-15T23:24:39;15.80;87.90
46752;DHT22;32497;48.936;9.270;2022-10-15T23:29:41;15.80;88.00
46752;DHT22;32497;48.936;9.270;2022-10-15T23:34:42;15.80;87.80
46752;DHT22;32497;48.936;9.270;2022-10-15T23:39:44;15.70;87.70
46752;DHT22;32497;48.936;9.270;2022-10-15T23:44:45;15.70;87.80
46752;DHT22;32497;48.936;9.270;2022-10-15T23:49:46;15.60;87.60
46752;DHT22;32497;48.936;9.270;2022-10-15T23:54:49;15.70;87.90
46752;DHT22;32497;48.936;9.270;2022-10-15T23:59:50;15.70;87.70
